Time;durP1;ratioP1;P1;durP2;ratioP2;P2;SDS_P1;SDS_P2;PMS_P1;PMS_P2;Temp;Humidity;BMP_temperature;BMP_pressure;BME280_temperature;BME280_humidity;BME280_pressure;Samples;Min_cycle;Max_cycle;Signal;HPM_P1;HPM_P2
2022/12/07 00:02:01;;;;;;;;;;;;;;;10.31;nan;101218.19;5008565;28;19967;-36
2022/12/07 00:04:26;;;;;;;;;;;;;;;10.34;nan;101220.41;5007704;28;20539;-36
2022/12/07 00:06:52;;;;;;;;;;;;;;;10.38;nan;101213.50;5008711;28;19929;-38
2022/12/07 00:09:18;;;;;;;;;;;;;;;10.39;nan;101214.31;5008205;28;19921;-37
2022/12/07 00:11:44;;;;;;;;;;;;;;;10.41;nan;101207.72;5009062;28;19918;-38
2022/12/07 00:14:14;;;;;;;;;;;;;;;10.41;nan;101207.72;5008054;28;20065;-35
2022/12/07 00:16:39;;;;;;;;;;;;;;;10.46;nan;101198.97;5012436;28;19925;-35
2022/12/07 00:19:04;;;;;;;;;;;;;;;10.44;nan;101203.75;5006506;28;19976;-38
2022/12/07 00:21:34;;;;;;;;;;;;;;;10.43;nan;101202.94;5010709;28;19968;-37
2022/12/07 00:24:00;;;;;;;;;;;;;;;10.46;nan;101202.44;5010595;28;20400;-37
2022/12/07 00:26:35;;;;;;;;;;;;;;;10.48;nan;101202.22;5008024;28;19917;-37
2022/12/07 00:29:03;;;;;;;;;;;;;;;10.47;nan;101198.72;5005571;28;20443;-36
2022/12/07 00:31:30;;;;;;;;;;;;;;;10.49;nan;101193.94;5012419;28;19975;-36
2022/12/07 00:33:56;;;;;;;;;;;;;;;10.46;nan;101199.78;5009062;28;19918;-38
2022/12/07 00:36:23;;;;;;;;;;;;;;;10.45;nan;101191.97;5011135;28;20032;-38
2022/12/07 00:38:48;;;;;;;;;;;;;;;10.43;nan;101189.53;5006936;28;20377;-36
2022/12/07 00:41:15;;;;;;;;;;;;;;;10.43;nan;101186.84;5011591;28;19925;-37
2022/12/07 00:43:41;;;;;;;;;;;;;;;10.46;nan;101186.38;5008201;28;20353;-36
2022/12/07 00:46:07;;;;;;;;;;;;;;;10.51;nan;101188.34;5008859;28;20499;-37
2022/12/07 00:48:32;;;;;;;;;;;;;;;10.48;nan;101183.47;5007769;28;20776;-37
2022/12/07 00:50:58;;;;;;;;;;;;;;;10.46;nan;101181.00;5014232;28;19960;-38
2022/12/07 00:53:24;;;;;;;;;;;;;;;10.48;nan;101181.59;5007381;28;20316;-38
2022/12/07 00:55:49;;;;;;;;;;;;;;;10.48;nan;101170.88;5011703;28;19922;-36
2022/12/07 00:58:15;;;;;;;;;;;;;;;10.45;nan;101176.72;5014489;28;19936;-35
2022/12/07 01:00:41;;;;;;;;;;;;;;;10.47;nan;101171.94;5018961;28;19921;-39
2022/12/07 01:03:07;;;;;;;;;;;;;;;10.46;nan;101164.13;5012828;28;19986;-37
2022/12/07 01:05:33;;;;;;;;;;;;;;;10.46;nan;101161.44;5015542;28;20377;-37
2022/12/07 01:07:58;;;;;;;;;;;;;;;10.46;nan;101159.59;5012807;28;19967;-36
2022/12/07 01:10:24;;;;;;;;;;;;;;;10.43;nan;101165.41;5018156;28;19917;-36
2022/12/07 01:12:49;;;;;;;;;;;;;;;10.41;nan;101159.50;5012152;28;20296;-35
2022/12/07 01:15:14;;;;;;;;;;;;;;;10.45;nan;101170.53;5015829;28;19925;-37
2022/12/07 01:17:40;;;;;;;;;;;;;;;10.45;nan;101171.34;5014498;28;19917;-36
2022/12/07 01:20:06;;;;;;;;;;;;;;;10.46;nan;101161.44;5016865;28;19972;-39
2022/12/07 01:22:31;;;;;;;;;;;;;;;10.41;nan;101159.50;5014613;28;19937;-35
2022/12/07 01:24:56;;;;;;;;;;;;;;;10.34;nan;101164.16;5011525;28;19921;-37
2022/12/07 01:27:22;;;;;;;;;;;;;;;10.33;nan;101165.19;5014001;28;19924;-36
2022/12/07 01:29:47;;;;;;;;;;;;;;;10.29;nan;101169.41;5009621;28;19921;-37
2022/12/07 01:32:12;;;;;;;;;;;;;;;10.27;nan;101160.78;5011805;28;19983;-39
2022/12/07 01:34:38;;;;;;;;;;;;;;;10.26;nan;101159.16;5014186;28;19925;-37
2022/12/07 01:37:03;;;;;;;;;;;;;;;10.22;nan;101153.44;5013286;28;19987;-36
2022/12/07 01:39:29;;;;;;;;;;;;;;;10.22;nan;101145.41;5015207;28;20281;-37
2022/12/07 01:41:54;;;;;;;;;;;;;;;10.21;nan;101149.13;5015774;28;19921;-38
2022/12/07 01:44:25;;;;;;;;;;;;;;;10.25;nan;101149.50;5014043;28;19987;-35
2022/12/07 01:46:55;;;;;;;;;;;;;;;10.21;nan;101137.63;5014786;28;20087;-36
2022/12/07 01:49:23;;;;;;;;;;;;;;;10.21;nan;101132.25;5014601;28;19917;-38
2022/12/07 01:51:51;;;;;;;;;;;;;;;10.25;nan;101134.25;5011380;28;20294;-38
2022/12/07 01:54:17;;;;;;;;;;;;;;;10.24;nan;101143.34;5011590;28;20191;-36
2022/12/07 01:56:46;;;;;;;;;;;;;;;10.24;nan;101132.63;5009037;28;19925;-38
2022/12/07 01:59:13;;;;;;;;;;;;;;;10.25;nan;101133.44;5013870;28;19927;-35
2022/12/07 02:01:38;;;;;;;;;;;;;;;10.26;nan;101132.38;5013407;28;20023;-38
2022/12/07 02:04:04;;;;;;;;;;;;;;;10.27;nan;101134.00;5014063;28;20016;-36
2022/12/07 02:06:29;;;;;;;;;;;;;;;10.28;nan;101130.28;5012278;28;19917;-39
2022/12/07 02:08:55;;;;;;;;;;;;;;;10.31;nan;101127.13;5008999;28;19917;-34
2022/12/07 02:11:21;;;;;;;;;;;;;;;10.24;nan;101124.59;5010716;28;20001;-37
2022/12/07 02:13:47;;;;;;;;;;;;;;;10.24;nan;101121.09;5010706;28;19917;-35
2022/12/07 02:16:12;;;;;;;;;;;;;;;10.17;nan;101120.38;5012609;28;20013;-38
2022/12/07 02:18:56;;;;;;;;;;;;;;;10.10;nan;101117.00;5010578;28;20012;-36
2022/12/07 02:21:40;;;;;;;;;;;;;;;10.05;nan;101117.69;5012449;28;19965;-36
2022/12/07 02:24:20;;;;;;;;;;;;;;;10.02;nan;101117.38;5010474;28;19921;-35
2022/12/07 02:26:46;;;;;;;;;;;;;;;10.04;nan;101115.25;5013837;28;19948;-38
2022/12/07 02:29:33;;;;;;;;;;;;;;;10.02;nan;101120.03;5009074;28;19925;-36
2022/12/07 02:32:13;;;;;;;;;;;;;;;10.00;nan;101117.59;5008385;28;19928;-38
2022/12/07 02:34:38;;;;;;;;;;;;;;;9.99;nan;101118.66;5015456;28;19925;-37
2022/12/07 02:37:17;;;;;;;;;;;;;;;10.00;nan;101109.56;5010702;28;19925;-36
2022/12/07 02:39:46;;;;;;;;;;;;;;;9.99;nan;101108.75;5016562;28;19921;-34
2022/12/07 02:42:17;;;;;;;;;;;;;;;10.01;nan;101100.50;5009670;28;19929;-36
2022/12/07 02:44:43;;;;;;;;;;;;;;;10.05;nan;101098.97;5014735;28;20004;-38
2022/12/07 02:47:10;;;;;;;;;;;;;;;10.07;nan;101090.72;5009215;28;19925;-35
2022/12/07 02:49:38;;;;;;;;;;;;;;;10.09;nan;101091.28;5013568;28;19921;-36
2022/12/07 02:52:03;;;;;;;;;;;;;;;10.09;nan;101089.44;5010824;28;19922;-40
2022/12/07 02:54:28;;;;;;;;;;;;;;;10.07;nan;101090.72;5010461;28;20405;-37
2022/12/07 02:57:04;;;;;;;;;;;;;;;10.07;nan;101083.50;5010123;28;20079;-40
2022/12/07 02:59:32;;;;;;;;;;;;;;;10.03;nan;101078.84;5012015;28;19917;-39
2022/12/07 03:02:04;;;;;;;;;;;;;;;10.00;nan;101067.56;5009674;28;19929;-40
2022/12/07 03:04:44;;;;;;;;;;;;;;;9.97;nan;101073.38;5009924;28;19963;-40
2022/12/07 03:07:25;;;;;;;;;;;;;;;9.89;nan;101055.03;5012192;28;20125;-41
2022/12/07 03:09:51;;;;;;;;;;;;;;;9.82;nan;101058.88;5009386;28;19925;-40
2022/12/07 03:12:22;;;;;;;;;;;;;;;9.70;nan;101056.22;5009044;28;20424;-37
2022/12/07 03:14:52;;;;;;;;;;;;;;;9.60;nan;101051.44;5009928;28;19924;-39
2022/12/07 03:17:21;;;;;;;;;;;;;;;9.57;nan;101041.22;5011117;28;19921;-39
2022/12/07 03:19:50;;;;;;;;;;;;;;;9.56;nan;101036.91;5013158;28;19924;-40
2022/12/07 03:22:16;;;;;;;;;;;;;;;9.57;nan;101032.38;5010884;28;19921;-40
2022/12/07 03:24:45;;;;;;;;;;;;;;;9.49;nan;101040.75;5010718;28;20277;-36
2022/12/07 03:27:10;;;;;;;;;;;;;;;9.37;nan;101030.88;5008650;28;19936;-39
2022/12/07 03:29:38;;;;;;;;;;;;;;;9.31;nan;101031.78;5008900;28;19991;-41
2022/12/07 03:32:15;;;;;;;;;;;;;;;9.32;nan;101033.41;5011856;28;20017;-38
2022/12/07 03:34:53;;;;;;;;;;;;;;;9.30;nan;101030.16;5008376;28;20067;-37
2022/12/07 03:37:23;;;;;;;;;;;;;;;9.29;nan;101033.88;5013153;28;19963;-37
2022/12/07 03:39:58;;;;;;;;;;;;;;;9.27;nan;101030.63;5010965;28;19971;-40
2022/12/07 03:42:24;;;;;;;;;;;;;;;9.22;nan;101022.50;5008131;28;19936;-41
2022/12/07 03:44:50;;;;;;;;;;;;;;;9.21;nan;101015.53;5008953;28;19917;-40
2022/12/07 03:47:15;;;;;;;;;;;;;;;9.23;nan;101008.09;5011513;28;20324;-39
2022/12/07 03:49:48;;;;;;;;;;;;;;;9.26;nan;101006.81;5008306;28;19921;-37
2022/12/07 03:52:33;;;;;;;;;;;;;;;9.28;nan;101010.06;5007993;28;19917;-40
2022/12/07 03:55:24;;;;;;;;;;;;;;;9.23;nan;101000.06;5008041;28;19925;-39
2022/12/07 03:57:51;;;;;;;;;;;;;;;9.26;nan;100996.13;5006973;28;19952;-40
2022/12/07 04:00:17;;;;;;;;;;;;;;;9.22;nan;100990.44;5007486;28;19929;-40
2022/12/07 04:02:43;;;;;;;;;;;;;;;9.23;nan;100985.88;5008695;28;20328;-36
2022/12/07 04:05:08;;;;;;;;;;;;;;;9.21;nan;100988.00;5007242;28;19925;-39
2022/12/07 04:07:34;;;;;;;;;;;;;;;9.18;nan;100986.59;5008262;28;20416;-37
2022/12/07 04:09:59;;;;;;;;;;;;;;;9.16;nan;100988.69;5007784;28;19917;-40
2022/12/07 04:12:24;;;;;;;;;;;;;;;9.15;nan;100976.34;5007782;28;20462;-38
2022/12/07 04:14:50;;;;;;;;;;;;;;;9.15;nan;100979.03;5008539;28;19924;-40
2022/12/07 04:17:15;;;;;;;;;;;;;;;9.17;nan;100978.81;5007201;28;19979;-40
2022/12/07 04:19:40;;;;;;;;;;;;;;;9.21;nan;100972.75;5013211;23;19972;-32
2022/12/07 04:22:06;;;;;;;;;;;;;;;9.17;nan;100968.94;4992938;28;20028;-32
2022/12/07 04:24:32;;;;;;;;;;;;;;;9.14;nan;100965.88;4999747;28;19949;-32
2022/12/07 04:26:57;;;;;;;;;;;;;;;9.09;nan;100970.09;4994724;28;19921;-32
2022/12/07 04:29:23;;;;;;;;;;;;;;;9.06;nan;100961.72;4997427;28;19967;-32
2022/12/07 04:31:48;;;;;;;;;;;;;;;9.00;nan;100957.31;4997470;28;19933;-32
2022/12/07 04:34:14;;;;;;;;;;;;;;;8.92;nan;100952.28;5000171;28;20482;-32
2022/12/07 04:36:39;;;;;;;;;;;;;;;8.86;nan;100939.88;4999897;28;20324;-32
2022/12/07 04:39:06;;;;;;;;;;;;;;;8.83;nan;100943.00;4998077;28;20274;-32
2022/12/07 04:41:31;;;;;;;;;;;;;;;8.80;nan;100938.94;4999530;28;20198;-32
2022/12/07 04:43:58;;;;;;;;;;;;;;;8.75;nan;100950.31;4996757;28;19947;-32
2022/12/07 04:46:24;;;;;;;;;;;;;;;8.73;nan;100936.38;4995739;28;19924;-32
2022/12/07 04:48:50;;;;;;;;;;;;;;;8.71;nan;100940.31;5000429;28;19926;-32
2022/12/07 04:51:18;;;;;;;;;;;;;;;8.69;nan;100937.88;4996221;28;20266;-32
2022/12/07 04:53:43;;;;;;;;;;;;;;;8.70;nan;100934.16;5000581;28;19996;-32
2022/12/07 04:56:08;;;;;;;;;;;;;;;8.65;nan;100931.38;5000244;28;20008;-32
2022/12/07 04:58:34;;;;;;;;;;;;;;;8.66;nan;100927.66;4998293;28;20324;-32
2022/12/07 05:00:59;;;;;;;;;;;;;;;8.66;nan;100927.66;4996915;28;20440;-32
2022/12/07 05:03:24;;;;;;;;;;;;;;;8.68;nan;100924.75;4999522;28;20281;-32
2022/12/07 05:05:50;;;;;;;;;;;;;;;8.66;nan;100916.97;4998445;28;19964;-32
2022/12/07 05:08:15;;;;;;;;;;;;;;;8.68;nan;100912.22;4998559;28;19957;-32
2022/12/07 05:10:40;;;;;;;;;;;;;;;8.66;nan;100922.31;4995275;28;19973;-32
2022/12/07 05:13:06;;;;;;;;;;;;;;;8.67;nan;100915.13;4999974;28;20165;-32
2022/12/07 05:15:31;;;;;;;;;;;;;;;8.58;nan;100914.63;4996363;28;20341;-32
2022/12/07 05:17:57;;;;;;;;;;;;;;;8.56;nan;100907.91;4998467;28;19917;-32
2022/12/07 05:20:22;;;;;;;;;;;;;;;8.53;nan;100901.16;4978509;28;19921;-32
2022/12/07 05:22:47;;;;;;;;;;;;;;;8.52;nan;100899.53;4996267;28;19918;-32
2022/12/07 05:25:12;;;;;;;;;;;;;;;8.46;nan;100897.81;4997854;28;19925;-32
2022/12/07 05:27:38;;;;;;;;;;;;;;;8.40;nan;100894.19;4994342;28;19928;-32
2022/12/07 05:30:04;;;;;;;;;;;;;;;8.36;nan;100892.19;4997661;28;19920;-32
2022/12/07 05:32:30;;;;;;;;;;;;;;;8.28;nan;100888.00;4997439;28;20021;-32
2022/12/07 05:34:55;;;;;;;;;;;;;;;8.26;nan;100886.56;4996258;28;20471;-32
2022/12/07 05:37:20;;;;;;;;;;;;;;;8.23;nan;100887.84;4997190;28;19929;-32
2022/12/07 05:39:46;;;;;;;;;;;;;;;8.27;nan;100886.38;4995099;28;19917;-32
2022/12/07 05:42:14;;;;;;;;;;;;;;;8.21;nan;100883.78;4996229;28;20113;-32
2022/12/07 05:44:43;;;;;;;;;;;;;;;8.19;nan;100884.81;4994951;28;19917;-32
2022/12/07 05:47:09;;;;;;;;;;;;;;;8.20;nan;100880.28;4995255;28;20181;-32
2022/12/07 05:49:34;;;;;;;;;;;;;;;8.20;nan;100880.28;4995907;28;19975;-32
2022/12/07 05:52:00;;;;;;;;;;;;;;;8.16;nan;100873.78;4994504;28;19991;-32
2022/12/07 05:54:25;;;;;;;;;;;;;;;8.10;nan;100875.53;4999238;28;20465;-32
2022/12/07 05:56:50;;;;;;;;;;;;;;;8.10;nan;100875.53;4996843;28;20016;-32
2022/12/07 05:59:22;;;;;;;;;;;;;;;8.10;nan;100870.19;4996355;28;19932;-32
2022/12/07 06:01:51;;;;;;;;;;;;;;;8.14;nan;100866.03;4996652;28;19925;-32
2022/12/07 06:04:17;;;;;;;;;;;;;;;8.14;nan;100868.69;4996644;28;19964;-32
2022/12/07 06:06:43;;;;;;;;;;;;;;;8.14;nan;100863.34;4997379;28;19918;-32
2022/12/07 06:09:08;;;;;;;;;;;;;;;8.19;nan;100860.00;5000921;28;19926;-32
2022/12/07 06:14:17;;;;;;;;;;;;;;;8.18;nan;100853.84;4996639;28;19944;-32
2022/12/07 06:16:43;;;;;;;;;;;;;;;8.18;nan;100848.50;4996228;28;19917;-32
2022/12/07 06:19:08;;;;;;;;;;;;;;;8.15;nan;100846.28;4997754;28;19944;-32
2022/12/07 06:21:33;;;;;;;;;;;;;;;8.12;nan;100845.94;4995632;28;19932;-32
2022/12/07 06:23:59;;;;;;;;;;;;;;;8.14;nan;100842.00;4996026;28;19918;-32
2022/12/07 06:26:24;;;;;;;;;;;;;;;8.09;nan;100847.22;4997236;28;19944;-32
2022/12/07 06:28:50;;;;;;;;;;;;;;;8.09;nan;100836.53;4995371;28;19955;-32
2022/12/07 06:31:15;;;;;;;;;;;;;;;8.14;nan;100835.84;4992952;28;19961;-32
2022/12/07 06:33:41;;;;;;;;;;;;;;;8.13;nan;100829.69;4994712;28;19928;-32
2022/12/07 06:36:06;;;;;;;;;;;;;;;8.17;nan;100830.88;4994222;28;19917;-32
2022/12/07 06:38:32;;;;;;;;;;;;;;;8.16;nan;100831.91;4993012;28;20567;-32
2022/12/07 06:40:57;;;;;;;;;;;;;;;8.18;nan;100829.81;4994972;28;19925;-32
2022/12/07 06:43:22;;;;;;;;;;;;;;;8.22;nan;100826.69;4994091;28;19917;-32
2022/12/07 06:45:48;;;;;;;;;;;;;;;8.19;nan;100831.44;4994516;28;20384;-32
2022/12/07 06:48:14;;;;;;;;;;;;;;;8.19;nan;100828.78;4992480;28;20326;-32
2022/12/07 06:50:39;;;;;;;;;;;;;;;8.18;nan;100835.16;4994492;28;20432;-32
2022/12/07 06:53:04;;;;;;;;;;;;;;;8.18;nan;100821.00;4992261;28;20186;-32
2022/12/07 06:55:30;;;;;;;;;;;;;;;8.15;nan;100827.63;4993102;28;19921;-32
2022/12/07 06:57:55;;;;;;;;;;;;;;;8.14;nan;100825.19;4994276;28;20362;-32
2022/12/07 07:00:21;;;;;;;;;;;;;;;8.10;nan;100824.03;4993913;28;19925;-32
2022/12/07 07:02:46;;;;;;;;;;;;;;;8.13;nan;100816.34;4993750;28;19975;-32
2022/12/07 07:05:11;;;;;;;;;;;;;;;8.19;nan;100822.63;4996248;28;20012;-32
2022/12/07 07:07:37;;;;;;;;;;;;;;;8.23;nan;100821.09;5000037;28;19952;-32
2022/12/07 07:10:02;;;;;;;;;;;;;;;8.27;nan;100816.16;4997400;28;20004;-32
2022/12/07 07:12:27;;;;;;;;;;;;;;;8.27;nan;100818.81;4993543;28;19997;-32
2022/12/07 07:14:53;;;;;;;;;;;;;;;8.28;nan;100813.25;4993713;28;20401;-32
2022/12/07 07:17:18;;;;;;;;;;;;;;;8.28;nan;100813.25;4993301;28;20393;-32
2022/12/07 07:19:43;;;;;;;;;;;;;;;8.27;nan;100811.63;4993224;28;20405;-32
2022/12/07 07:22:09;;;;;;;;;;;;;;;8.30;nan;100815.69;4994981;28;19921;-32
2022/12/07 07:24:34;;;;;;;;;;;;;;;8.27;nan;100806.28;4994661;28;20336;-32
2022/12/07 07:26:59;;;;;;;;;;;;;;;8.32;nan;100808.25;4993984;28;20343;-32
2022/12/07 07:29:25;;;;;;;;;;;;;;;8.30;nan;100805.81;4993733;28;19917;-32
2022/12/07 07:31:50;;;;;;;;;;;;;;;8.32;nan;100810.91;4995021;28;19968;-32
2022/12/07 07:34:15;;;;;;;;;;;;;;;8.37;nan;100805.72;4993289;28;19918;-32
2022/12/07 07:36:41;;;;;;;;;;;;;;;8.42;nan;100805.84;4994516;28;19918;-32
2022/12/07 07:39:06;;;;;;;;;;;;;;;8.46;nan;100809.69;4993722;28;19917;-32
2022/12/07 07:41:31;;;;;;;;;;;;;;;8.52;nan;100805.25;4993780;28;19930;-32
2022/12/07 07:43:57;;;;;;;;;;;;;;;8.53;nan;100799.69;4994559;28;19996;-32
2022/12/07 07:46:22;;;;;;;;;;;;;;;8.60;nan;100805.72;4993562;28;20328;-32
2022/12/07 07:48:47;;;;;;;;;;;;;;;8.63;nan;100805.28;4994590;28;20347;-32
2022/12/07 07:51:13;;;;;;;;;;;;;;;8.63;nan;100802.59;4994295;28;19917;-32
2022/12/07 07:53:38;;;;;;;;;;;;;;;8.70;nan;100800.59;4994925;28;20405;-32
2022/12/07 07:56:04;;;;;;;;;;;;;;;8.70;nan;100800.59;4993581;28;19921;-32
2022/12/07 07:58:29;;;;;;;;;;;;;;;8.72;nan;100801.19;4993633;28;20039;-32
2022/12/07 08:00:54;;;;;;;;;;;;;;;8.74;nan;100799.09;4993108;28;20017;-32
2022/12/07 08:03:20;;;;;;;;;;;;;;;8.77;nan;100792.47;4993695;28;19953;-32
2022/12/07 08:05:45;;;;;;;;;;;;;;;8.89;nan;100792.44;4994244;28;19925;-32
2022/12/07 08:08:10;;;;;;;;;;;;;;;8.85;nan;100796.63;5000939;28;19968;-32
2022/12/07 08:10:36;;;;;;;;;;;;;;;8.88;nan;100788.16;4998759;28;20300;-32
2022/12/07 08:13:11;;;;;;;;;;;;;;;8.91;nan;100791.16;4995072;28;19948;-32
2022/12/07 08:15:38;;;;;;;;;;;;;;;8.92;nan;100791.97;4994467;28;20176;-32
2022/12/07 08:18:03;;;;;;;;;;;;;;;9.01;nan;100798.59;4991909;28;19921;-32
2022/12/07 08:20:33;;;;;;;;;;;;;;;9.02;nan;100802.88;4998615;28;19917;-32
2022/12/07 08:22:58;;;;;;;;;;;;;;;9.02;nan;100801.03;4997725;28;20403;-32
2022/12/07 08:25:24;;;;;;;;;;;;;;;9.03;nan;100799.97;4996976;28;20012;-32
2022/12/07 08:27:50;;;;;;;;;;;;;;;9.08;nan;100801.94;4999350;28;19918;-32
2022/12/07 08:30:16;;;;;;;;;;;;;;;9.09;nan;100798.19;4994749;28;20172;-32
2022/12/07 08:32:41;;;;;;;;;;;;;;;9.08;nan;100807.28;4992891;28;19918;-32
2022/12/07 08:35:07;;;;;;;;;;;;;;;9.13;nan;100809.22;4993702;28;20355;-32
2022/12/07 08:37:33;;;;;;;;;;;;;;;9.09;nan;100803.53;4993547;28;20012;-32
2022/12/07 08:39:58;;;;;;;;;;;;;;;9.15;nan;100807.94;4993981;28;19921;-32
2022/12/07 08:42:27;;;;;;;;;;;;;;;9.16;nan;100795.41;4993704;28;19921;-32
2022/12/07 08:44:53;;;;;;;;;;;;;;;9.17;nan;100800.53;4994545;28;19921;-32
2022/12/07 08:47:18;;;;;;;;;;;;;;;9.20;nan;100800.03;4994070;28;20262;-32
2022/12/07 08:49:46;;;;;;;;;;;;;;;9.15;nan;100797.25;4992674;28;20397;-32
2022/12/07 08:52:12;;;;;;;;;;;;;;;9.16;nan;100801.56;4992775;28;19918;-32
2022/12/07 08:54:38;;;;;;;;;;;;;;;9.19;nan;100803.75;4994710;28;20324;-32
2022/12/07 08:57:05;;;;;;;;;;;;;;;9.23;nan;100806.75;4993829;28;19929;-32
2022/12/07 08:59:32;;;;;;;;;;;;;;;9.23;nan;100810.25;4992974;28;19929;-32
2022/12/07 09:01:58;;;;;;;;;;;;;;;9.24;nan;100809.19;4995177;28;19925;-32
2022/12/07 09:04:23;;;;;;;;;;;;;;;9.27;nan;100808.72;4992613;28;19925;-32
2022/12/07 09:06:49;;;;;;;;;;;;;;;9.30;nan;100810.09;4996810;28;19929;-32
2022/12/07 09:09:14;;;;;;;;;;;;;;;9.26;nan;100807.09;4999194;28;20381;-32
2022/12/07 09:11:40;;;;;;;;;;;;;;;9.26;nan;100811.63;4994318;28;19960;-32
2022/12/07 09:14:05;;;;;;;;;;;;;;;9.34;nan;100812.09;4994716;28;19960;-32
2022/12/07 09:16:30;;;;;;;;;;;;;;;9.28;nan;100813.00;4993973;28;19958;-32
2022/12/07 09:18:56;;;;;;;;;;;;;;;9.24;nan;100811.06;4993714;28;19922;-32
2022/12/07 09:21:21;;;;;;;;;;;;;;;9.23;nan;100810.25;4997007;28;20068;-32
2022/12/07 09:23:47;;;;;;;;;;;;;;;9.21;nan;100809.69;4998836;28;19937;-32
2022/12/07 09:26:12;;;;;;;;;;;;;;;9.24;nan;100817.22;4996679;28;19918;-32
2022/12/07 09:28:37;;;;;;;;;;;;;;;9.26;nan;100809.78;4995985;28;19918;-32
2022/12/07 09:31:04;;;;;;;;;;;;;;;9.29;nan;100811.97;4997426;28;19937;-32
2022/12/07 09:33:29;;;;;;;;;;;;;;;9.33;nan;100820.31;4998130;28;19971;-32
2022/12/07 09:35:54;;;;;;;;;;;;;;;9.32;nan;100816.84;4996385;28;19961;-32
2022/12/07 09:38:20;;;;;;;;;;;;;;;9.39;nan;100814.84;4997841;28;19928;-32
2022/12/07 09:40:46;;;;;;;;;;;;;;;9.37;nan;100813.47;4997166;28;20478;-32
2022/12/07 09:43:16;;;;;;;;;;;;;;;9.33;nan;100815.78;4997562;28;19918;-32
2022/12/07 09:45:43;;;;;;;;;;;;;;;9.35;nan;100819.06;4997796;28;19918;-32
2022/12/07 09:48:19;;;;;;;;;;;;;;;9.38;nan;100821.25;4998121;28;19922;-32
2022/12/07 09:50:45;;;;;;;;;;;;;;;9.43;nan;100825.06;4997716;28;20309;-32
2022/12/07 09:53:15;;;;;;;;;;;;;;;9.50;nan;100817.69;4996822;28;19922;-32
2022/12/07 09:55:41;;;;;;;;;;;;;;;9.54;nan;100821.53;4997906;28;19921;-32
2022/12/07 09:58:12;;;;;;;;;;;;;;;9.53;nan;100819.91;4995593;28;19968;-32
2022/12/07 10:00:37;;;;;;;;;;;;;;;9.54;nan;100827.72;4997911;28;20355;-32
2022/12/07 10:03:02;;;;;;;;;;;;;;;9.55;nan;100823.97;4996536;28;19932;-32
2022/12/07 10:05:28;;;;;;;;;;;;;;;9.52;nan;100826.31;4997499;28;20463;-32
2022/12/07 10:07:53;;;;;;;;;;;;;;;9.51;nan;100830.03;5000985;28;19926;-32
2022/12/07 10:10:26;;;;;;;;;;;;;;;9.53;nan;100825.28;4998081;28;20301;-32
2022/12/07 10:12:58;;;;;;;;;;;;;;;9.57;nan;100823.72;4996072;28;19917;-32
2022/12/07 10:15:23;;;;;;;;;;;;;;;9.54;nan;100816.19;4997281;28;20081;-32
2022/12/07 10:17:50;;;;;;;;;;;;;;;9.54;nan;100818.88;4995621;28;20448;-32
2022/12/07 10:20:16;;;;;;;;;;;;;;;9.55;nan;100823.16;5020772;23;19925;-32
2022/12/07 10:22:54;;;;;;;;;;;;;;;9.56;nan;100816.75;5007226;28;20423;-32
2022/12/07 10:25:20;;;;;;;;;;;;;;;9.56;nan;100811.41;5007324;28;19980;-32
2022/12/07 10:27:57;;;;;;;;;;;;;;;9.60;nan;100828.59;5007116;28;19959;-32
2022/12/07 10:30:22;;;;;;;;;;;;;;;9.57;nan;100823.72;5004962;28;20404;-31
2022/12/07 10:32:48;;;;;;;;;;;;;;;9.60;nan;100828.59;5008384;28;19921;-31
2022/12/07 10:35:19;;;;;;;;;;;;;;;9.60;nan;100832.09;5007349;28;20373;-32
2022/12/07 10:37:45;;;;;;;;;;;;;;;9.62;nan;100827.31;5005253;28;19917;-32
2022/12/07 10:40:39;;;;;;;;;;;;;;;9.64;nan;100827.06;5006537;28;19967;-32
2022/12/07 10:43:14;;;;;;;;;;;;;;;9.73;nan;100832.84;4990253;28;19922;-32
2022/12/07 10:45:48;;;;;;;;;;;;;;;9.76;nan;100833.19;5006680;28;20012;-32
2022/12/07 10:48:19;;;;;;;;;;;;;;;9.69;nan;100833.34;5005836;28;20377;-32
2022/12/07 10:50:50;;;;;;;;;;;;;;;9.63;nan;100834.28;5007192;28;19921;-32
2022/12/07 10:53:45;;;;;;;;;;;;;;;9.61;nan;100831.03;5005874;28;20779;-31
2022/12/07 10:56:29;;;;;;;;;;;;;;;9.63;nan;100836.16;4993145;28;19917;-32
2022/12/07 10:59:06;;;;;;;;;;;;;;;9.71;nan;100830.44;5006634;28;20432;-32
2022/12/07 11:01:43;;;;;;;;;;;;;;;9.74;nan;100815.75;5006147;28;20348;-32
2022/12/07 11:04:18;;;;;;;;;;;;;;;9.74;nan;100813.06;5006070;28;19925;-32
2022/12/07 11:06:52;;;;;;;;;;;;;;;9.79;nan;100810.47;5006295;28;19925;-32
2022/12/07 11:09:21;;;;;;;;;;;;;;;9.81;nan;100811.84;5004753;28;19921;-32
2022/12/07 11:12:01;;;;;;;;;;;;;;;9.83;nan;100815.09;5006522;28;19979;-32
2022/12/07 11:14:49;;;;;;;;;;;;;;;9.84;nan;100816.72;5005618;28;19950;-32
2022/12/07 11:17:18;;;;;;;;;;;;;;;9.86;nan;100814.63;5005254;28;20032;-32
2022/12/07 11:20:02;;;;;;;;;;;;;;;9.92;nan;100813.66;5006625;28;19917;-32
2022/12/07 11:22:56;;;;;;;;;;;;;;;9.90;nan;100821.13;5006158;28;20016;-31
2022/12/07 11:25:29;;;;;;;;;;;;;;;9.90;nan;100818.44;4992314;28;19992;-32
2022/12/07 11:28:13;;;;;;;;;;;;;;;9.91;nan;100812.03;5005864;28;19925;-32
2022/12/07 11:30:42;;;;;;;;;;;;;;;9.88;nan;100812.53;5004399;28;19932;-32
2022/12/07 11:33:31;;;;;;;;;;;;;;;9.94;nan;100814.22;5006278;28;19922;-31
2022/12/07 11:36:15;;;;;;;;;;;;;;;9.93;nan;100812.63;4995102;28;20008;-32
2022/12/07 11:38:50;;;;;;;;;;;;;;;9.92;nan;100824.38;4997043;28;19926;-32
2022/12/07 11:41:19;;;;;;;;;;;;;;;9.93;nan;100814.47;4999287;28;20435;-31
2022/12/07 11:43:53;;;;;;;;;;;;;;;9.93;nan;100826.00;5000140;28;20451;-32
2022/12/07 11:46:21;;;;;;;;;;;;;;;9.89;nan;100824.84;4998096;28;19922;-32
2022/12/07 11:48:50;;;;;;;;;;;;;;;9.92;nan;100824.38;5004126;28;20490;-32
2022/12/07 11:51:18;;;;;;;;;;;;;;;9.90;nan;100823.00;4993947;28;19964;-32
2022/12/07 11:53:55;;;;;;;;;;;;;;;9.94;nan;100824.94;4997199;28;19935;-32
2022/12/07 11:56:22;;;;;;;;;;;;;;;9.91;nan;100822.75;5001497;28;20412;-32
2022/12/07 11:58:51;;;;;;;;;;;;;;;9.98;nan;100822.59;5002509;28;19984;-31
2022/12/07 12:01:42;;;;;;;;;;;;;;;9.97;nan;100808.38;5000149;28;19929;-32
2022/12/07 12:04:11;;;;;;;;;;;;;;;10.01;nan;100811.38;4993158;28;19921;-31
2022/12/07 12:06:37;;;;;;;;;;;;;;;10.13;nan;100814.00;4999463;28;20002;-32
2022/12/07 12:09:06;;;;;;;;;;;;;;;10.22;nan;100813.38;4999305;28;19995;-32
2022/12/07 12:11:34;;;;;;;;;;;;;;;10.32;nan;100801.19;4997951;28;20044;-32
2022/12/07 12:13:59;;;;;;;;;;;;;;;10.25;nan;100812.09;4995458;28;20415;-32
2022/12/07 12:16:31;;;;;;;;;;;;;;;10.24;nan;100805.94;4992829;28;19918;-31
2022/12/07 12:19:10;;;;;;;;;;;;;;;10.23;nan;100796.28;4998408;28;20462;-32
2022/12/07 12:21:36;;;;;;;;;;;;;;;10.25;nan;100796.03;4996693;28;20488;-32
2022/12/07 12:24:09;;;;;;;;;;;;;;;10.29;nan;100791.78;4996861;28;20017;-32
2022/12/07 12:26:36;;;;;;;;;;;;;;;10.39;nan;100801.84;4995990;28;19933;-31
2022/12/07 12:29:03;;;;;;;;;;;;;;;10.43;nan;100803.81;4994991;28;19952;-31
2022/12/07 12:31:41;;;;;;;;;;;;;;;10.48;nan;100779.75;4993349;28;20013;-31
2022/12/07 12:34:25;;;;;;;;;;;;;;;10.54;nan;100788.66;4994851;28;19928;-32
2022/12/07 12:36:51;;;;;;;;;;;;;;;10.53;nan;100787.03;4995880;28;19996;-32
2022/12/07 12:39:18;;;;;;;;;;;;;;;10.48;nan;100792.34;4997745;28;20400;-32
2022/12/07 12:44:15;;;;;;;;;;;;;;;10.47;nan;100790.72;4997621;28;20277;-32
2022/12/07 12:46:46;;;;;;;;;;;;;;;10.35;nan;100798.84;5003330;28;19921;-32
2022/12/07 12:49:19;;;;;;;;;;;;;;;10.26;nan;100786.94;4996058;28;19925;-32
2022/12/07 12:51:46;;;;;;;;;;;;;;;10.15;nan;100780.56;4994735;28;19928;-32
2022/12/07 12:54:18;;;;;;;;;;;;;;;10.11;nan;100781.31;4999271;28;20125;-31
2022/12/07 12:56:43;;;;;;;;;;;;;;;10.08;nan;100779.13;4999232;28;19921;-31
2022/12/07 12:59:29;;;;;;;;;;;;;;;10.08;nan;100773.78;5000449;28;19921;-32
2022/12/07 13:02:15;;;;;;;;;;;;;;;10.06;nan;100763.31;4998248;28;19926;-32
2022/12/07 13:04:55;;;;;;;;;;;;;;;10.09;nan;100764.69;5004619;28;19971;-32
2022/12/07 13:07:39;;;;;;;;;;;;;;;10.09;nan;100770.03;5003869;28;19969;-32
2022/12/07 13:10:20;;;;;;;;;;;;;;;9.97;nan;100775.47;5002911;28;19929;-32
2022/12/07 13:12:55;;;;;;;;;;;;;;;9.93;nan;100772.47;4998414;28;20380;-31
2022/12/07 13:15:31;;;;;;;;;;;;;;;9.90;nan;100770.28;4998719;28;20481;-32
2022/12/07 13:17:58;;;;;;;;;;;;;;;9.87;nan;100777.97;5000648;28;20386;-32